Terminal Aerodrome Forecast
Issued by NWS Cleveland, OH

Home | Current Version | Previous Version | Text Only | Print | Product List | Glossary Off
Versions: 1 2 3 4 5 6 7 8 9 10 11 12 13 14 15 16 17 18

974
FTUS41 KCLE 192339
TAFERI
TAF
KERI 192339Z 2000/2024 29020G30KT 5SM -SHSN OVC040
      TEMPO 2002/2006 3SM -SN BR BKN025
     FM200600 28020G30KT P6SM -SHSN OVC030
     FM201500 24017G27KT P6SM BKN035
     FM201700 23017G28KT P6SM SCT250=

USA.gov is the U.S. government's official web portal to all federal, state and local government web resources and services.